Airport Name : Gao

Other Name : Gao

ICAO : GAGO

IATA : GAQ

FAA :

Latitude : 16.248433

Longitude : -0.005456

Country : Mali

Local Date and Time : 28 Feb 2021 01:03

 

TAF (Terminal Aerodrome Forecast)

TAF GAGO 272300Z 2800/2824 34006KT 5000 DU NSC TEMPO 2806/2812 2000

 

METAR (METeorological Aerodrome Report)

To Charter a Jet Click here.